Time;durP1;ratioP1;P1;durP2;ratioP2;P2;SDS_P1;SDS_P2;PMS_P1;PMS_P2;Temp;Humidity;BMP_temperature;BMP_pressure;BME280_temperature;BME280_humidity;BME280_pressure;Samples;Min_cycle;Max_cycle;Signal;HPM_P1;HPM_P2
2021/08/11 00:01:12;;;;;;;11.02;6.68;;;;;;;11.80;91.24;101944.44;5031166;28;20045;-74
2021/08/11 00:03:37;;;;;;;14.95;6.75;;;;;;;11.80;91.65;101949.78;5031339;28;20033;-74
2021/08/11 00:06:02;;;;;;;12.18;7.55;;;;;;;11.78;91.63;101943.72;5032260;28;20038;-74
2021/08/11 00:08:28;;;;;;;11.77;6.90;;;;;;;11.75;91.73;101949.28;5032216;28;20033;-74
2021/08/11 00:10:53;;;;;;;14.98;7.43;;;;;;;11.69;91.50;101958.63;5031550;28;20038;-74
2021/08/11 00:13:18;;;;;;;10.88;7.32;;;;;;;11.63;91.64;101957.25;5032192;28;20033;-73
2021/08/11 00:15:44;;;;;;;18.52;7.65;;;;;;;11.60;91.59;101959.34;5031446;28;20025;-74
2021/08/11 00:18:10;;;;;;;10.07;6.75;;;;;;;11.55;91.22;101954.31;5031815;28;20466;-73
2021/08/11 00:20:35;;;;;;;14.55;7.22;;;;;;;11.53;91.08;101950.09;5031129;28;20475;-74
2021/08/11 00:23:01;;;;;;;7.32;5.47;;;;;;;11.51;91.08;101954.69;5032070;28;20033;-73
2021/08/11 00:25:27;;;;;;;10.27;6.75;;;;;;;11.53;91.12;101955.44;5031996;28;20041;-73
2021/08/11 00:27:52;;;;;;;13.73;7.25;;;;;;;11.55;91.02;101950.81;5031374;28;20041;-73
2021/08/11 00:30:18;;;;;;;10.07;6.85;;;;;;;11.58;91.24;101950.59;5031871;28;20048;-73
2021/08/11 00:32:43;;;;;;;14.68;6.90;;;;;;;11.58;91.11;101948.75;5031158;28;20470;-73
2021/08/11 00:35:09;;;;;;;12.10;7.93;;;;;;;11.57;91.00;101947.06;5032204;28;20048;-73
2021/08/11 00:37:35;;;;;;;17.60;9.98;;;;;;;11.62;91.61;101946.72;5031344;28;20069;-74
2021/08/11 00:40:00;;;;;;;16.55;9.35;;;;;;;11.62;92.11;101947.56;5030609;28;20442;-73
2021/08/11 00:42:26;;;;;;;11.65;6.88;;;;;;;11.61;91.80;101950.34;5031461;28;20088;-73
2021/08/11 00:44:51;;;;;;;12.57;7.47;;;;;;;11.58;91.57;101948.75;5031228;28;20482;-73
2021/08/11 00:47:18;;;;;;;13.88;7.38;;;;;;;11.54;91.25;101942.00;5031718;28;20034;-73
2021/08/11 00:49:44;;;;;;;10.05;6.95;;;;;;;11.54;90.93;101946.44;5031685;28;20068;-74
2021/08/11 00:52:10;;;;;;;14.98;8.30;;;;;;;11.52;90.36;101949.22;5035545;28;20033;-73
2021/08/11 00:54:36;;;;;;;15.13;8.35;;;;;;;11.53;90.63;101950.09;5035340;28;20037;-73
2021/08/11 00:57:04;;;;;;;13.23;7.50;;;;;;;11.53;91.26;101955.44;5034605;28;20025;-74
2021/08/11 00:59:35;;;;;;;17.20;9.77;;;;;;;11.55;91.85;101957.00;5035111;28;20083;-74
2021/08/11 01:02:02;;;;;;;17.70;9.80;;;;;;;11.52;92.21;101961.72;5034678;28;20064;-73
2021/08/11 01:04:29;;;;;;;14.55;8.32;;;;;;;11.50;91.69;101958.34;5017418;28;20450;-73
2021/08/11 01:06:54;;;;;;;13.95;8.50;;;;;;;11.49;91.29;101959.28;5034144;28;20509;-73
2021/08/11 01:09:20;;;;;;;19.90;10.05;;;;;;;11.51;91.61;101952.88;5034844;28;20116;-73
2021/08/11 01:11:49;;;;;;;14.93;8.50;;;;;;;11.48;91.83;101953.13;5034155;28;20185;-74
2021/08/11 01:14:15;;;;;;;15.43;7.72;;;;;;;11.43;91.72;101948.13;5034884;28;20037;-73
2021/08/11 01:16:40;;;;;;;15.80;9.32;;;;;;;11.40;91.63;101955.50;5016636;28;20044;-74
2021/08/11 01:19:06;;;;;;;12.32;7.47;;;;;;;11.37;91.98;101945.09;5035000;28;20064;-73
2021/08/11 01:21:37;;;;;;;14.57;8.35;;;;;;;11.32;91.78;101937.44;5034902;28;20514;-73
2021/08/11 01:24:28;;;;;;;11.05;6.97;;;;;;;11.31;91.47;101937.56;5034514;28;20029;-73
2021/08/11 01:27:04;;;;;;;11.05;7.10;;;;;;;11.33;91.61;101943.63;5034159;28;20108;-73
2021/08/11 01:30:11;;;;;;;13.23;8.00;;;;;;;11.36;91.77;101938.91;5035016;28;20462;-73
2021/08/11 01:33:23;;;;;;;11.95;7.93;;;;;;;11.37;91.40;101940.59;5034354;28;20535;-73
2021/08/11 01:35:57;;;;;;;16.90;10.05;;;;;;;11.40;91.61;101955.50;5033076;28;20025;-73
2021/08/11 01:38:25;;;;;;;8.88;6.85;;;;;;;11.40;91.28;101952.84;5034264;28;20033;-73
2021/08/11 01:40:58;;;;;;;14.90;9.05;;;;;;;11.43;91.21;101950.78;5033551;28;20037;-73
2021/08/11 01:43:26;;;;;;;15.70;10.07;;;;;;;11.47;91.38;101948.75;5034516;28;20037;-73
2021/08/11 01:45:55;;;;;;;20.25;11.48;;;;;;;11.53;91.80;101948.28;5033803;28;20148;-73
2021/08/11 01:48:27;;;;;;;25.48;12.98;;;;;;;11.59;91.90;101947.78;5034325;28;20056;-72
2021/08/11 01:50:54;;;;;;;22.15;11.38;;;;;;;11.60;92.07;101946.84;5033621;28;20029;-73
2021/08/11 01:53:21;;;;;;;15.82;9.52;;;;;;;11.63;91.61;101951.09;5033927;28;20131;-73
2021/08/11 01:55:50;;;;;;;19.17;11.00;;;;;;;11.71;91.34;101958.50;5015851;28;20033;-73
2021/08/11 01:58:19;;;;;;;39.53;16.80;;;;;;;11.83;92.34;101954.84;5034048;28;20453;-73
2021/08/11 02:00:47;;;;;;;23.77;13.52;;;;;;;11.89;92.30;101959.72;5032494;28;20033;-73
2021/08/11 02:03:13;;;;;;;26.08;11.82;;;;;;;11.92;92.37;101956.81;5033512;28;20115;-73
2021/08/11 02:05:38;;;;;;;28.95;13.10;;;;;;;11.93;91.75;101955.03;5034000;28;20172;-73
2021/08/11 02:08:04;;;;;;;27.70;12.82;;;;;;;11.95;92.06;101947.75;5033127;28;20030;-73
2021/08/11 02:10:30;;;;;;;32.90;14.10;;;;;;;11.97;92.12;101953.81;5033839;28;20037;-73
2021/08/11 02:12:56;;;;;;;25.50;13.43;;;;;;;11.98;92.39;101951.00;5015675;28;20484;-73
2021/08/11 02:15:21;;;;;;;26.17;14.10;;;;;;;12.03;92.34;101945.31;5033688;28;20061;-73
2021/08/11 02:17:47;;;;;;;30.98;14.27;;;;;;;12.05;92.53;101947.88;5033687;28;20029;-73
2021/08/11 02:20:15;;;;;;;25.33;13.02;;;;;;;12.04;92.26;101943.50;5032859;28;20055;-73
2021/08/11 02:22:40;;;;;;;38.50;15.98;;;;;;;12.05;92.95;101939.88;5033638;28;20029;-73
2021/08/11 02:25:09;;;;;;;38.28;17.75;;;;;;;12.08;93.04;101943.13;5032695;28;20084;-73
2021/08/11 02:27:53;;;;;;;27.48;14.23;;;;;;;12.07;93.09;101945.94;5033548;28;20055;-73
2021/08/11 02:30:22;;;;;;;28.60;14.30;;;;;;;12.08;92.77;101944.97;5033499;28;20044;-73
2021/08/11 02:32:55;;;;;;;33.60;14.82;;;;;;;12.07;92.63;101940.59;5033398;28;20486;-72
2021/08/11 02:35:29;;;;;;;45.70;19.40;;;;;;;12.08;92.84;101936.97;5033827;28;20447;-73
2021/08/11 02:37:57;;;;;;;24.10;12.32;;;;;;;12.08;92.27;101942.31;5032601;28;20022;-73
2021/08/11 02:40:46;;;;;;;25.92;12.88;;;;;;;12.09;92.30;101941.31;5033150;28;20033;-72
2021/08/11 02:43:27;;;;;;;28.67;13.75;;;;;;;12.12;92.60;101943.72;5032959;28;20323;-73
2021/08/11 02:46:02;;;;;;;32.50;16.38;;;;;;;12.11;92.96;101947.41;5032711;28;20026;-73
2021/08/11 02:48:28;;;;;;;37.75;15.18;;;;;;;12.10;93.04;101945.69;5033254;28;20073;-72
2021/08/11 02:50:53;;;;;;;30.60;12.20;;;;;;;12.08;93.14;101940.47;5032543;28;20033;-73
2021/08/11 02:53:23;;;;;;;24.85;12.50;;;;;;;12.07;93.09;101943.25;5033146;28;20380;-73
2021/08/11 02:55:49;;;;;;;27.67;13.07;;;;;;;12.06;92.60;101946.88;5033072;28;20068;-73
2021/08/11 02:58:17;;;;;;;26.20;13.23;;;;;;;12.09;93.20;101949.31;5032412;28;20033;-73
2021/08/11 03:00:42;;;;;;;23.27;12.98;;;;;;;12.10;93.09;101945.69;5032893;28;20124;-73
2021/08/11 03:03:08;;;;;;;23.90;12.93;;;;;;;12.07;92.78;101948.59;5032571;28;20456;-73
2021/08/11 03:05:35;;;;;;;34.25;14.68;;;;;;;12.07;92.96;101943.25;5032673;28;20036;-73
2021/08/11 03:08:01;;;;;;;29.08;14.70;;;;;;;12.03;92.99;101942.63;5032585;28;20120;-73
2021/08/11 03:10:28;;;;;;;28.08;14.60;;;;;;;11.99;92.95;101936.72;5032551;28;20060;-73
2021/08/11 03:12:55;;;;;;;27.77;11.95;;;;;;;11.96;93.14;101939.63;5033117;28;20041;-73
2021/08/11 03:15:21;;;;;;;34.67;14.38;;;;;;;11.93;93.35;101939.88;5032438;28;20370;-73
2021/08/11 03:17:47;;;;;;;29.15;13.63;;;;;;;11.87;93.35;101934.13;5032651;28;20470;-72
2021/08/11 03:20:12;;;;;;;33.95;15.45;;;;;;;11.86;93.03;101943.13;5032060;28;20051;-72
2021/08/11 03:22:38;;;;;;;34.60;15.02;;;;;;;11.84;93.00;101943.22;5032747;28;20029;-72
2021/08/11 03:25:05;;;;;;;27.33;13.45;;;;;;;11.82;93.03;101943.34;5032507;28;20041;-73
2021/08/11 03:27:30;;;;;;;35.42;15.77;;;;;;;11.83;93.46;101945.03;5033211;28;20037;-73
2021/08/11 03:29:55;;;;;;;25.00;14.23;;;;;;;11.81;93.45;101944.31;5032649;28;20041;-73
2021/08/11 03:32:21;;;;;;;34.80;15.48;;;;;;;11.81;93.22;101951.47;5032843;28;20076;-72
2021/08/11 03:34:46;;;;;;;24.55;11.95;;;;;;;11.79;92.52;101953.41;5033734;28;20108;-73
2021/08/11 03:37:17;;;;;;;29.73;14.65;;;;;;;11.79;93.46;101948.06;5032541;28;20033;-73
2021/08/11 03:39:43;;;;;;;34.80;16.38;;;;;;;11.78;93.36;101955.22;5033562;28;20042;-72
2021/08/11 03:42:09;;;;;;;36.70;17.23;;;;;;;11.80;93.51;101957.78;5032021;28;20091;-72
2021/08/11 03:44:35;;;;;;;40.65;18.88;;;;;;;11.88;93.79;101955.34;5033390;28;20053;-72
2021/08/11 03:47:00;;;;;;;52.70;22.08;;;;;;;11.93;94.11;101955.88;5031977;28;20088;-72
2021/08/11 03:49:25;;;;;;;53.65;22.70;;;;;;;11.99;94.16;101959.88;5032646;28;20033;-72
2021/08/11 03:51:51;;;;;;;41.60;18.77;;;;;;;11.98;94.08;101959.00;5031964;28;20457;-72
2021/08/11 03:54:16;;;;;;;37.38;17.10;;;;;;;12.00;94.22;101956.22;5031400;28;20183;-73
2021/08/11 03:56:42;;;;;;;60.97;24.52;;;;;;;12.10;94.20;101951.84;5014632;28;20072;-73
2021/08/11 03:59:07;;;;;;;69.75;25.02;;;;;;;12.20;94.69;101951.16;5013725;28;20477;-73
2021/08/11 04:01:32;;;;;;;68.95;25.52;;;;;;;12.28;94.50;101962.03;5032204;28;20041;-72
2021/08/11 04:03:58;;;;;;;61.95;23.98;;;;;;;12.33;94.66;101955.38;5032045;28;20478;-72
2021/08/11 04:06:23;;;;;;;53.83;21.63;;;;;;;12.34;94.49;101954.38;5031614;28;20030;-72
2021/08/11 04:08:49;;;;;;;44.45;20.80;;;;;;;12.32;94.52;101960.84;5032275;28;20036;-72
2021/08/11 04:11:14;;;;;;;45.20;19.88;;;;;;;12.31;94.56;101959.97;5031480;28;20037;-72
2021/08/11 04:13:39;;;;;;;54.75;21.50;;;;;;;12.34;94.53;101961.53;5032234;28;20042;-72
2021/08/11 04:16:05;;;;;;;50.75;21.15;;;;;;;12.36;94.66;101964.97;5013520;28;20038;-73
2021/08/11 04:18:30;;;;;;;59.83;22.25;;;;;;;12.37;94.69;101968.47;5031856;28;20034;-72
2021/08/11 04:20:56;;;;;;;74.03;24.73;;;;;;;12.38;94.53;101971.00;5032048;28;20037;-72
2021/08/11 04:23:21;;;;;;;60.10;22.50;;;;;;;12.40;94.77;101968.22;5031502;28;20036;-72
2021/08/11 04:25:46;;;;;;;57.53;19.33;;;;;;;12.37;94.80;101974.66;5034368;28;20033;-72
2021/08/11 04:28:12;;;;;;;56.55;23.25;;;;;;;12.37;94.61;101963.97;5035199;28;20029;-72
2021/08/11 04:30:40;;;;;;;54.15;22.65;;;;;;;12.41;94.74;101967.25;5035797;28;20048;-72
2021/08/11 04:33:05;;;;;;;47.13;19.48;;;;;;;12.39;94.81;101970.06;5018374;28;20083;-72
2021/08/11 04:35:31;;;;;;;48.08;20.15;;;;;;;12.39;94.99;101970.06;5017817;28;20037;-70
2021/08/11 04:37:57;;;;;;;59.83;21.90;;;;;;;12.40;94.64;101968.22;5035576;28;20041;-73
2021/08/11 04:40:22;;;;;;;57.17;22.00;;;;;;;12.40;94.90;101963.72;5034790;28;20029;-73
2021/08/11 04:42:48;;;;;;;59.28;24.42;;;;;;;12.42;94.59;101961.78;5017360;28;20053;-73
2021/08/11 04:45:13;;;;;;;60.47;24.25;;;;;;;12.48;95.10;101961.28;5034898;28;20078;-74
2021/08/11 04:47:38;;;;;;;55.47;22.15;;;;;;;12.53;95.04;101959.09;5035523;28;20041;-73
2021/08/11 04:50:05;;;;;;;69.40;23.75;;;;;;;12.57;94.98;101962.38;5035366;28;20041;-75
2021/08/11 04:52:30;;;;;;;64.85;24.17;;;;;;;12.63;95.20;101964.53;5034736;28;20037;-73
2021/08/11 04:54:55;;;;;;;55.53;22.40;;;;;;;12.72;94.79;101968.28;5035425;28;20033;-74
2021/08/11 04:57:21;;;;;;;51.53;22.58;;;;;;;12.77;94.96;101966.06;5016945;28;20037;-72
2021/08/11 04:59:46;;;;;;;55.33;23.20;;;;;;;12.82;95.08;101965.69;5036387;28;20038;-73
2021/08/11 05:02:12;;;;;;;47.58;20.45;;;;;;;12.85;95.09;101982.31;5045217;28;20512;-73
2021/08/11 05:04:39;;;;;;;44.25;19.58;;;;;;;12.88;95.04;101981.19;5033933;28;20092;-75
2021/08/11 05:07:05;;;;;;;44.28;20.42;;;;;;;12.92;94.67;101973.81;5022884;28;20033;-70
2021/08/11 05:09:37;;;;;;;47.08;20.67;;;;;;;12.97;94.70;101983.13;5013551;28;20141;-71
2021/08/11 05:12:02;;;;;;;;;;;;;;;13.03;94.79;101979.97;5015494;28;20057;-71
2021/08/11 05:14:31;;;;;;;41.40;18.67;;;;;;;13.07;94.46;101977.03;4993634;28;19922;-69
2021/08/11 05:16:56;;;;;;;36.35;18.67;;;;;;;13.08;94.28;101973.34;5012567;28;20042;-73
2021/08/11 05:19:21;;;;;;;46.40;19.90;;;;;;;13.13;94.04;101977.34;5011624;28;20046;-72
2021/08/11 05:21:47;;;;;;;46.50;18.52;;;;;;;13.15;94.12;101982.56;5010957;28;20022;-72
2021/08/11 05:24:12;;;;;;;43.50;19.83;;;;;;;13.19;93.78;101986.69;5012036;28;20030;-71
2021/08/11 05:26:41;;;;;;;37.28;18.20;;;;;;;13.21;93.95;101984.72;5011691;28;20793;-71
2021/08/11 05:29:06;;;;;;;40.58;19.70;;;;;;;13.26;93.56;101987.03;5012128;28;20572;-71
2021/08/11 05:31:32;;;;;;;46.80;19.00;;;;;;;13.31;93.65;101988.31;5011449;28;20072;-72
2021/08/11 05:33:58;;;;;;;36.22;18.75;;;;;;;13.32;93.19;101990.03;5012022;28;20041;-74
2021/08/11 05:36:23;;;;;;;35.13;18.02;;;;;;;13.34;92.98;101997.94;5010075;28;20034;-73
2021/08/11 05:38:48;;;;;;;37.55;17.85;;;;;;;13.33;93.32;102005.09;5012066;28;20037;-73
2021/08/11 05:41:14;;;;;;;35.10;18.13;;;;;;;13.35;93.30;102010.34;5014131;28;20085;-72
2021/08/11 05:43:39;;;;;;;42.28;19.77;;;;;;;13.37;93.19;102013.72;5011033;28;20042;-71
2021/08/11 05:46:06;;;;;;;51.85;20.77;;;;;;;13.43;93.26;102009.69;5011831;28;20042;-72
2021/08/11 05:48:32;;;;;;;49.75;22.20;;;;;;;13.47;93.16;102013.81;5010694;28;20038;-71
2021/08/11 05:50:57;;;;;;;41.08;20.70;;;;;;;13.53;93.32;102024.81;5012195;28;20262;-71
2021/08/11 05:53:22;;;;;;;47.53;19.77;;;;;;;13.61;92.78;102016.16;5011175;28;20429;-72
2021/08/11 05:55:49;;;;;;;41.10;20.02;;;;;;;13.67;92.49;102020.97;5011685;28;20034;-71
2021/08/11 05:58:15;;;;;;;35.15;19.52;;;;;;;13.76;92.59;102019.34;5011487;28;20034;-74
2021/08/11 06:00:40;;;;;;;45.75;20.60;;;;;;;13.85;92.71;102015.91;5010530;28;20044;-74
2021/08/11 06:03:06;;;;;;;47.65;19.65;;;;;;;13.95;91.84;102025.81;5010398;28;20120;-73
2021/08/11 06:05:31;;;;;;;37.80;19.45;;;;;;;13.99;91.40;102025.41;5010912;28;20054;-73
2021/08/11 06:07:56;;;;;;;42.60;18.48;;;;;;;14.03;91.60;102026.84;5011481;28;20041;-72
2021/08/11 06:10:22;;;;;;;42.72;20.35;;;;;;;14.08;91.32;102024.59;5011409;28;20068;-72
2021/08/11 06:12:51;;;;;;;38.70;20.17;;;;;;;14.13;91.15;102031.38;5010962;28;20525;-72
2021/08/11 06:15:17;;;;;;;45.28;19.77;;;;;;;14.25;91.41;102033.00;5011195;28;20095;-73
2021/08/11 06:17:47;;;;;;;41.28;18.90;;;;;;;14.31;90.69;102028.94;5009486;28;20533;-72
2021/08/11 06:20:16;;;;;;;36.50;19.13;;;;;;;14.41;90.60;102027.97;5011149;28;20030;-73
2021/08/11 06:22:42;;;;;;;40.30;20.05;;;;;;;14.56;90.34;102035.66;5010240;28;20751;-75
2021/08/11 06:25:08;;;;;;;38.45;18.67;;;;;;;14.64;89.99;102046.53;5010929;28;20046;-71
2021/08/11 06:27:34;;;;;;;37.75;18.92;;;;;;;14.74;89.52;102042.06;5010184;28;20034;-72
2021/08/11 06:29:59;;;;;;;51.58;22.23;;;;;;;14.87;89.77;102044.50;5010757;28;20375;-74
2021/08/11 06:32:24;;;;;;;40.85;21.42;;;;;;;15.04;89.37;102039.44;5010498;28;20041;-74
2021/08/11 06:34:50;;;;;;;49.05;21.88;;;;;;;15.18;88.13;102039.03;5011227;28;20529;-71
2021/08/11 06:37:15;;;;;;;44.97;21.30;;;;;;;15.33;87.63;102036.78;5010340;28;20116;-74
2021/08/11 06:39:41;;;;;;;42.28;21.13;;;;;;;15.48;87.35;102039.88;5010229;28;20041;-75
2021/08/11 06:42:06;;;;;;;40.17;21.58;;;;;;;15.61;86.46;102047.63;5010412;28;20050;-76
2021/08/11 06:44:31;;;;;;;39.33;20.73;;;;;;;15.71;85.94;102039.59;4995115;28;20060;-71
2021/08/11 06:46:57;;;;;;;41.63;20.90;;;;;;;15.80;85.49;102039.59;5010631;28;20163;-74
2021/08/11 06:49:22;;;;;;;47.88;22.98;;;;;;;15.95;86.00;102047.19;5010250;28;20462;-73
2021/08/11 06:51:47;;;;;;;46.38;22.90;;;;;;;16.04;84.42;102051.69;5010135;28;20453;-71
2021/08/11 06:54:14;;;;;;;40.92;22.20;;;;;;;16.20;84.50;102049.22;5010937;28;20041;-72
2021/08/11 06:56:40;;;;;;;43.28;22.50;;;;;;;16.50;86.25;102057.19;5009977;28;20474;-76
2021/08/11 06:59:05;;;;;;;33.35;20.27;;;;;;;16.71;85.86;102057.75;5010563;28;20030;-77
2021/08/11 07:01:31;;;;;;;44.90;21.25;;;;;;;16.78;81.60;102055.34;5009715;28;20093;-75
2021/08/11 07:03:56;;;;;;;47.55;21.83;;;;;;;16.78;81.64;102055.34;5010466;28;20390;-77
2021/08/11 07:06:22;;;;;;;43.95;21.20;;;;;;;16.79;81.16;102048.09;5010536;28;20148;-76
2021/08/11 07:08:47;;;;;;;39.35;20.92;;;;;;;16.86;80.95;102046.50;5009887;28;20236;-77
2021/08/11 07:11:12;;;;;;;33.65;20.23;;;;;;;16.97;82.58;102043.63;5010182;28;20073;-76
2021/08/11 07:13:38;;;;;;;36.47;20.48;;;;;;;17.04;80.54;102055.47;5009359;28;20037;-75
2021/08/11 07:16:04;;;;;;;37.10;18.90;;;;;;;17.15;80.56;102051.69;5010737;28;20459;-73
2021/08/11 07:18:29;;;;;;;43.80;21.15;;;;;;;17.08;79.60;102056.84;5010099;28;20034;-74
2021/08/11 07:20:55;;;;;;;39.38;19.45;;;;;;;17.21;83.58;102051.13;5010268;28;20095;-74
2021/08/11 07:23:20;;;;;;;35.78;19.42;;;;;;;17.25;80.58;102048.94;5010230;28;20466;-75
2021/08/11 07:25:46;;;;;;;31.15;18.77;;;;;;;17.38;79.90;102046.72;4991671;28;20065;-74
2021/08/11 07:28:12;;;;;;;32.80;18.02;;;;;;;17.55;79.82;102045.00;5009984;28;20037;-73
2021/08/11 07:30:38;;;;;;;33.47;17.58;;;;;;;17.68;80.30;102046.47;5009863;28;20084;-74
2021/08/11 07:33:07;;;;;;;34.53;17.15;;;;;;;17.90;78.85;102054.06;5009985;28;20104;-73
2021/08/11 07:35:32;;;;;;;31.73;17.55;;;;;;;18.06;78.93;102050.59;5009448;28;20529;-75
2021/08/11 07:37:58;;;;;;;34.45;17.00;;;;;;;18.28;77.62;102051.06;5010277;28;20034;-71
2021/08/11 07:40:26;;;;;;;31.73;16.92;;;;;;;18.54;75.45;102053.72;5010370;28;20029;-73
2021/08/11 07:42:52;;;;;;;29.67;16.00;;;;;;;18.63;74.74;102057.28;5010366;28;20142;-72
2021/08/11 07:45:19;;;;;;;33.17;16.58;;;;;;;18.65;72.92;102052.59;5011008;28;20114;-72
2021/08/11 07:47:51;;;;;;;26.15;15.45;;;;;;;18.42;73.98;102061.25;5010540;28;20030;-72
2021/08/11 07:50:18;;;;;;;23.17;13.68;;;;;;;18.31;74.03;102059.66;4993112;28;20482;-72
2021/08/11 07:52:44;;;;;;;22.42;14.30;;;;;;;18.38;74.37;102064.44;5009626;28;20057;-72
2021/08/11 07:55:10;;;;;;;25.45;14.52;;;;;;;18.47;74.83;102061.59;5010053;28;20389;-73
2021/08/11 07:57:36;;;;;;;26.67;14.68;;;;;;;18.64;73.30;102067.88;5022679;28;20042;-70
2021/08/11 08:00:02;;;;;;;28.67;14.18;;;;;;;18.95;73.32;102061.13;5032881;28;20038;-71
2021/08/11 08:02:28;;;;;;;25.00;13.27;;;;;;;19.40;71.26;102059.84;5036039;28;20048;-70
2021/08/11 08:04:53;;;;;;;26.45;13.90;;;;;;;19.51;69.30;102054.13;5035627;28;20037;-71
2021/08/11 08:07:18;;;;;;;20.00;11.80;;;;;;;19.66;69.00;102062.38;5036371;28;20036;-71
2021/08/11 08:09:44;;;;;;;25.20;13.38;;;;;;;19.56;69.35;102061.72;5035350;28;20044;-69
2021/08/11 08:12:09;;;;;;;20.85;13.18;;;;;;;19.38;69.07;102057.31;5035852;28;20462;-70
2021/08/11 08:14:35;;;;;;;19.75;11.82;;;;;;;19.22;69.88;102069.94;5018474;28;20033;-73
2021/08/11 08:17:00;;;;;;;18.50;11.65;;;;;;;19.13;69.81;102067.22;5035337;28;20429;-70
2021/08/11 08:19:26;;;;;;;26.15;12.77;;;;;;;19.35;68.83;102068.44;5035727;28;20126;-71
2021/08/11 08:21:54;;;;;;;22.15;12.68;;;;;;;19.40;70.08;102073.34;5017627;28;20108;-69
2021/08/11 08:24:19;;;;;;;29.15;12.75;;;;;;;19.43;68.43;102069.47;5035970;28;20036;-70
2021/08/11 08:26:45;;;;;;;22.40;11.20;;;;;;;19.81;67.28;102072.50;5034910;28;20033;-69
2021/08/11 08:29:10;;;;;;;19.95;11.18;;;;;;;19.92;68.28;102065.94;5035893;28;20462;-69
2021/08/11 08:31:36;;;;;;;18.33;10.82;;;;;;;20.56;63.90;102068.63;5017731;28;20423;-71
2021/08/11 08:34:01;;;;;;;19.40;11.13;;;;;;;20.59;64.78;102073.66;5017350;28;20083;-72
2021/08/11 08:36:26;;;;;;;22.75;11.52;;;;;;;20.73;63.29;102070.25;5035710;28;20040;-71
2021/08/11 08:38:52;;;;;;;16.60;11.40;;;;;;;20.64;64.80;102071.28;5035032;28;20358;-74
2021/08/11 08:41:17;;;;;;;15.38;9.80;;;;;;;21.12;61.03;102066.66;5035252;28;20042;-75
2021/08/11 08:43:43;;;;;;;17.90;11.07;;;;;;;21.58;60.45;102063.09;5034990;28;20486;-71
2021/08/11 08:46:09;;;;;;;16.10;9.50;;;;;;;21.97;58.66;102061.22;5035684;28;20163;-73
2021/08/11 08:48:40;;;;;;;18.30;9.75;;;;;;;22.20;58.08;102061.16;5035496;28;20080;-71
2021/08/11 08:51:09;;;;;;;16.63;10.30;;;;;;;21.71;58.46;102059.78;5034731;28;20040;-74
2021/08/11 08:53:35;;;;;;;17.02;9.35;;;;;;;21.39;58.90;102061.72;5035389;28;20466;-76
2021/08/11 08:56:01;;;;;;;14.75;7.60;;;;;;;21.52;59.70;102068.41;5034758;28;20045;-75
2021/08/11 08:58:26;;;;;;;13.40;8.38;;;;;;;21.62;56.25;102060.88;5035583;28;20093;-74
2021/08/11 09:00:52;;;;;;;13.90;7.68;;;;;;;22.07;56.39;102064.50;5034194;28;20116;-75
2021/08/11 09:03:18;;;;;;;20.50;7.70;;;;;;;22.43;55.71;102071.09;5035250;28;20037;-75
2021/08/11 09:05:43;;;;;;;18.05;7.97;;;;;;;22.85;54.05;102083.91;5035090;28;20044;-76
2021/08/11 09:08:09;;;;;;;12.07;7.55;;;;;;;23.65;51.41;102083.09;5034449;28;20042;-79
2021/08/11 09:10:38;;;;;;;10.18;6.47;;;;;;;23.72;51.31;102079.38;5034734;28;20126;-76
2021/08/11 09:13:07;;;;;;;13.32;6.53;;;;;;;24.09;48.56;102071.09;5034227;28;20101;-76
2021/08/11 09:15:43;;;;;;;11.73;6.63;;;;;;;24.99;46.55;102076.53;5034946;28;20126;-76
2021/08/11 09:18:18;;;;;;;10.45;6.10;;;;;;;25.88;46.02;102069.91;5034353;28;20037;-76
2021/08/11 09:21:09;;;;;;;12.05;6.45;;;;;;;26.54;43.97;102078.19;5034533;28;20061;-75
2021/08/11 09:23:40;;;;;;;14.73;6.55;;;;;;;27.87;40.97;102083.88;5034575;28;20461;-75
2021/08/11 09:26:08;;;;;;;16.00;7.57;;;;;;;28.01;39.14;102074.50;5034137;28;20029;-73
2021/08/11 09:28:35;;;;;;;9.77;6.40;;;;;;;27.33;41.79;102076.09;5034595;28;20113;-73
2021/08/11 09:31:19;;;;;;;7.82;6.13;;;;;;;25.86;44.59;102079.38;5034009;28;20112;-74
2021/08/11 09:33:49;;;;;;;10.80;6.70;;;;;;;24.62;48.34;102073.31;5016952;28;20040;-73
2021/08/11 09:36:14;;;;;;;13.25;6.95;;;;;;;24.61;49.00;102077.88;5034291;28;20034;-73
2021/08/11 09:38:56;;;;;;;11.88;6.18;;;;;;;25.87;43.90;102061.97;5034105;28;20025;-75
2021/08/11 09:41:24;;;;;;;14.57;6.50;;;;;;;27.40;40.36;102076.06;5033838;28;20370;-75
2021/08/11 09:44:02;;;;;;;10.40;5.82;;;;;;;28.19;39.38;102068.22;5033924;28;20114;-74
2021/08/11 09:46:31;;;;;;;13.00;6.55;;;;;;;27.66;40.17;102069.53;5033920;28;20036;-74
2021/08/11 09:48:57;;;;;;;12.73;6.18;;;;;;;27.40;41.34;102081.53;5033594;28;20041;-75
2021/08/11 09:51:22;;;;;;;10.25;6.22;;;;;;;27.39;42.77;102077.94;5034124;28;20044;-74
2021/08/11 09:53:48;;;;;;;10.60;5.97;;;;;;;27.76;41.65;102069.03;5034088;28;20041;-73
2021/08/11 09:56:13;;;;;;;10.98;6.10;;;;;;;28.82;38.32;102077.16;5033735;28;20026;-75
2021/08/11 09:58:41;;;;;;;10.15;5.93;;;;;;;29.36;38.46;102079.94;5033955;28;20037;-73
2021/08/11 10:01:24;;;;;;;14.15;6.70;;;;;;;29.50;38.03;102078.66;5032088;28;20032;-72
2021/08/11 10:04:00;;;;;;;13.65;5.95;;;;;;;29.34;38.46;102084.84;5033957;28;20036;-73
2021/08/11 10:06:27;;;;;;;9.05;5.82;;;;;;;29.11;37.98;102086.44;5033615;28;20383;-73
2021/08/11 10:08:54;;;;;;;10.25;5.90;;;;;;;29.37;40.33;102089.84;5033861;28;20084;-75
2021/08/11 10:11:43;;;;;;;13.18;5.88;;;;;;;30.13;36.17;102090.03;5033762;28;20474;-75
2021/08/11 10:14:10;;;;;;;11.07;6.00;;;;;;;29.23;37.27;102089.25;5021899;28;20481;-73
2021/08/11 10:16:36;;;;;;;10.55;5.25;;;;;;;28.92;37.02;102090.28;5011143;28;20041;-74
2021/08/11 10:19:06;;;;;;;8.48;4.90;;;;;;;28.33;37.81;102101.72;5013398;28;20030;-75
2021/08/11 10:21:34;;;;;;;12.60;5.35;;;;;;;28.60;38.77;102088.56;5011771;28;20077;-74
2021/08/11 10:24:01;;;;;;;9.98;5.32;;;;;;;28.97;38.15;102090.41;5008419;28;20049;-73
2021/08/11 10:26:29;;;;;;;11.52;5.65;;;;;;;29.05;38.59;102090.06;5010558;28;20038;-72
2021/08/11 10:28:55;;;;;;;14.77;6.03;;;;;;;29.66;35.90;102092.75;5010797;28;20034;-73
2021/08/11 10:31:22;;;;;;;13.18;5.63;;;;;;;29.24;37.43;102093.63;5008940;28;20033;-73
2021/08/11 10:33:50;;;;;;;8.95;4.85;;;;;;;29.55;37.45;102099.91;5010944;28;20034;-73
2021/08/11 10:36:16;;;;;;;8.95;5.47;;;;;;;29.82;37.06;102097.56;5009894;28;20116;-73
2021/08/11 10:38:46;;;;;;;12.95;6.30;;;;;;;29.99;36.78;102088.59;5010380;28;20141;-74
2021/08/11 10:41:13;;;;;;;12.25;5.47;;;;;;;29.48;36.13;102085.44;5009766;28;20157;-77
2021/08/11 10:43:40;;;;;;;9.50;5.30;;;;;;;29.65;35.53;102085.59;5017282;28;20099;-75
2021/08/11 10:46:08;;;;;;;11.20;5.88;;;;;;;29.61;37.34;102093.47;5026284;28;20049;-76
2021/08/11 10:48:35;;;;;;;12.80;5.25;;;;;;;29.80;35.33;102091.44;5032543;28;20065;-77
2021/08/11 10:51:01;;;;;;;10.13;5.63;;;;;;;29.72;36.40;102089.91;5032301;28;20034;-74
2021/08/11 10:53:26;;;;;;;11.30;6.30;;;;;;;29.49;36.74;102098.94;5032703;28;20078;-75
2021/08/11 10:55:53;;;;;;;12.70;6.20;;;;;;;29.36;36.81;102108.22;5032941;28;20079;-77
2021/08/11 10:58:38;;;;;;;9.30;5.70;;;;;;;29.23;36.99;102105.69;5032273;28;20072;-76
2021/08/11 11:01:24;;;;;;;10.95;5.18;;;;;;;29.80;35.40;102102.41;5032013;28;20029;-76
2021/08/11 11:03:53;;;;;;;9.35;5.82;;;;;;;29.97;35.71;102105.31;5014849;28;20036;-76
2021/08/11 11:06:19;;;;;;;12.13;5.22;;;;;;;29.76;37.08;102098.47;5032316;28;20481;-77
2021/08/11 11:08:45;;;;;;;11.85;6.15;;;;;;;30.12;37.61;102106.72;5032686;28;20163;-76
2021/08/11 11:11:30;;;;;;;9.07;5.40;;;;;;;30.29;36.67;102106.81;5031948;28;20474;-76
2021/08/11 11:13:55;;;;;;;8.15;5.07;;;;;;;30.74;35.51;102104.22;5032492;28;20030;-75